Pagina principale
METAR-TAF:

METAR-TAF

Aeroporti :

Aeroporto di Ouagadougou

Ouagadougou, Burkina Faso

latitudine: 12-21N, longitudine: 001-31W, altezza: 316 m

Osservazione

Il bollettino è stato emesso 57 minuti fa, alle 12:00 UTC
Vento 6 kt da sud-est
Temperature 30°C
Umidità 62%
Pressione 1016 hPa
Visibilità 10 km o più
Nuvoloso ad un'altezza di 2000 ft

METAR: DFFD 151200Z 14006KT 9999 BKN020 30/22 Q1016 NOSIG

Ora: 12:57 (12:57 UTC)

Previsione

Il bollettino è stato emesso 1 ora e 57 minuti fa, alle 11:00 UTC
Previsione valida dal 15 alle 12 UTC al 16 alle 18 UTC
Vento 8 kt da sud-ovest
Visibilità 10 km o più
Poco nuvoloso ad un'altezza di 2000 ft
Temporaneamente
dal 15 alle 14 UTC al 16 alle 02 UTC
Visibilità: 4000 m
Nubi sparse ad un'altezza di 2000 ft
Poco nuvoloso ad un'altezza di 3300 ft, Cumulonembo.
temporale, pioggia

TAF: DFFD 151100Z 1512/1618 22008KT 9999 FEW020 TEMPO 1514/1602 4000 TSRA SCT020 FEW033CB

Osservazioni e previsioni meteorologiche di più di 4000 aeroporti (messaggi METAR e TAF).

Le stazioni disponibili sono rappresentate dai dischi gialli e rossi sulla carta.

Puntare il mouse per vedere il nome della stazione.

Clicca sopra per visualizzare le osservazioni e previsioni meteorologiche.

Per cambiare la mappa : fare clic sui pulsanti verdi con una croce nera per ingrandire, il pulsante verde con un trattino per diminuire, o sulla freccia verde per le mappe adiacenti.


METAR-TAF: